Time;durP1;ratioP1;P1;durP2;ratioP2;P2;SDS_P1;SDS_P2;PMS_P1;PMS_P2;Temp;Humidity;BMP_temperature;BMP_pressure;BME280_temperature;BME280_humidity;BME280_pressure;Samples;Min_cycle;Max_cycle;Signal;HPM_P1;HPM_P2
2022/05/30 00:01:35;;;;;;;0.15;0.00;;;23.80;37.70;;;;;;4967240;28;20155;-55
2022/05/30 00:04:03;;;;;;;2.17;0.20;;;23.90;37.80;;;;;;4969405;28;20043;-53
2022/05/30 00:06:31;;;;;;;8.05;0.32;;;23.90;37.80;;;;;;4969222;28;20414;-52
2022/05/30 00:08:58;;;;;;;2.38;0.13;;;23.90;37.90;;;;;;4968504;28;20046;-51
2022/05/30 00:11:27;;;;;;;0.03;0.03;;;23.90;38.00;;;;;;4970028;28;20069;-49
2022/05/30 00:13:55;;;;;;;0.28;0.08;;;23.90;38.10;;;;;;4970110;28;20420;-51
2022/05/30 00:16:23;;;;;;;0.75;0.00;;;23.90;38.20;;;;;;4968314;28;20047;-50
2022/05/30 00:18:50;;;;;;;0.05;0.00;;;23.90;38.20;;;;;;4965648;28;20069;-52
2022/05/30 00:21:19;;;;;;;0.10;0.00;;;24.00;38.40;;;;;;4969500;28;20590;-54
2022/05/30 00:23:48;;;;;;;0.30;0.10;;;24.00;38.50;;;;;;4967635;28;20039;-54
2022/05/30 00:26:16;;;;;;;0.45;0.00;;;24.00;38.60;;;;;;4971112;28;20042;-51
2022/05/30 00:28:43;;;;;;;3.92;0.05;;;24.00;38.60;;;;;;4968667;28;20042;-53
2022/05/30 00:31:12;;;;;;;0.30;0.30;;;24.00;38.70;;;;;;4968492;28;20066;-54
2022/05/30 00:33:40;;;;;;;1.95;0.38;;;24.00;38.70;;;;;;4968826;28;20046;-55
2022/05/30 00:36:08;;;;;;;3.38;0.00;;;24.00;38.80;;;;;;4968297;28;20114;-51
2022/05/30 00:38:35;;;;;;;1.77;0.10;;;24.10;38.80;;;;;;4968986;28;20053;-51
2022/05/30 00:41:04;;;;;;;0.68;0.10;;;24.00;38.80;;;;;;4953473;28;20419;-54
2022/05/30 00:43:34;;;;;;;0.22;0.22;;;24.10;39.50;;;;;;4966309;28;20121;-53
2022/05/30 00:46:06;;;;;;;0.10;0.00;;;24.10;39.00;;;;;;4968847;28;20042;-52
2022/05/30 00:48:50;;;;;;;2.92;0.45;;;24.10;39.00;;;;;;4967692;28;20055;-56
2022/05/30 00:51:20;;;;;;;0.20;0.05;;;24.10;39.00;;;;;;4966053;28;20773;-53
2022/05/30 00:53:50;;;;;;;0.15;0.00;;;24.10;39.10;;;;;;4969089;28;20043;-54
2022/05/30 00:56:19;;;;;;;0.45;0.00;;;24.10;39.10;;;;;;4956813;28;20625;-53
2022/05/30 00:58:50;;;;;;;0.10;0.00;;;24.10;39.20;;;;;;4968581;28;20162;-56
2022/05/30 01:01:18;;;;;;;0.00;0.00;;;24.10;39.20;;;;;;4951331;28;20043;-55
2022/05/30 01:06:37;;;;;;;1.45;0.70;;;24.10;39.30;;;;;;4971024;28;20042;-56
2022/05/30 01:09:08;;;;;;;0.15;0.00;;;24.10;39.40;;;;;;4951649;28;20049;-56
2022/05/30 01:11:56;;;;;;;0.55;0.00;;;24.10;39.40;;;;;;4951344;28;20054;-56
2022/05/30 01:14:26;;;;;;;0.10;0.00;;;24.10;39.40;;;;;;4969562;28;20401;-54
2022/05/30 01:16:53;;;;;;;1.25;0.10;;;24.10;39.50;;;;;;4953142;28;20512;-56
2022/05/30 01:19:36;;;;;;;1.13;0.00;;;24.10;39.60;;;;;;4952876;28;20081;-55
2022/05/30 01:22:19;;;;;;;0.80;0.10;;;24.10;39.70;;;;;;4967308;28;20089;-54
2022/05/30 01:24:56;;;;;;;2.92;0.00;;;24.10;39.70;;;;;;4966828;28;20043;-55
2022/05/30 01:27:54;;;;;;;0.70;0.10;;;24.10;39.80;;;;;;4947542;28;20541;-54
2022/05/30 01:30:23;;;;;;;0.10;0.00;;;24.10;39.80;;;;;;4951904;28;20059;-55
2022/05/30 01:32:50;;;;;;;2.45;0.05;;;24.10;39.90;;;;;;4950230;28;20046;-54
2022/05/30 01:35:23;;;;;;;0.30;0.30;;;24.10;39.90;;;;;;4971110;28;20129;-54
2022/05/30 01:37:50;;;;;;;0.52;0.10;;;24.10;40.00;;;;;;4952571;28;20047;-53
2022/05/30 01:40:19;;;;;;;0.30;0.30;;;24.10;39.90;;;;;;4951227;28;20181;-52
2022/05/30 01:42:46;;;;;;;0.38;0.00;;;24.10;40.00;;;;;;4968932;28;20420;-54
2022/05/30 01:45:14;;;;;;;0.22;0.00;;;24.10;40.00;;;;;;4951026;28;20099;-55
2022/05/30 01:47:42;;;;;;;0.00;0.00;;;24.10;40.00;;;;;;4967709;28;20102;-55
2022/05/30 01:50:10;;;;;;;0.30;0.00;;;24.10;40.10;;;;;;4953118;28;20601;-54
2022/05/30 01:52:39;;;;;;;0.13;0.00;;;24.10;40.20;;;;;;4950349;28;20051;-53
2022/05/30 01:55:08;;;;;;;0.50;0.10;;;24.10;40.20;;;;;;4949091;28;20058;-54
2022/05/30 01:58:00;;;;;;;0.70;0.10;;;24.10;40.20;;;;;;4963692;28;20518;-55
2022/05/30 02:00:34;;;;;;;0.10;0.10;;;24.10;40.30;;;;;;4965482;28;20049;-54
2022/05/30 02:03:03;;;;;;;0.63;0.00;;;24.10;40.30;;;;;;4959166;28;20456;-56
2022/05/30 02:05:31;;;;;;;0.38;0.00;;;24.10;40.30;;;;;;4948906;28;20049;-56
2022/05/30 02:07:58;;;;;;;3.13;0.10;;;24.10;40.30;;;;;;4966968;28;20116;-55
2022/05/30 02:10:29;;;;;;;0.20;0.10;;;24.10;40.30;;;;;;4947860;28;20129;-55
2022/05/30 02:12:58;;;;;;;0.38;0.32;;;24.10;40.30;;;;;;4947482;28;20042;-56
2022/05/30 02:18:19;;;;;;;0.00;0.00;;;24.10;41.00;;;;;;4946263;28;20057;-56
2022/05/30 02:20:46;;;;;;;0.08;0.00;;;24.10;40.40;;;;;;4965140;28;20050;-57
2022/05/30 02:23:14;;;;;;;0.22;0.03;;;24.10;40.40;;;;;;4949394;28;20040;-57
2022/05/30 02:25:41;;;;;;;1.40;0.10;;;24.10;40.40;;;;;;4966462;28;20440;-56
2022/05/30 02:28:08;;;;;;;0.20;0.00;;;24.10;40.40;;;;;;4949788;28;20036;-56
2022/05/30 02:30:36;;;;;;;0.25;0.20;;;24.10;40.40;;;;;;4949451;28;20519;-56
2022/05/30 02:38:32;;;;;;;1.13;0.00;;;24.10;40.70;;;;;;4965586;28;20046;-55
2022/05/30 02:41:18;;;;;;;0.05;0.00;;;24.10;40.80;;;;;;4969059;28;20071;-56
2022/05/30 02:43:52;;;;;;;0.50;0.10;;;24.10;40.90;;;;;;4966162;28;20046;-52
2022/05/30 02:46:19;;;;;;;0.00;0.00;;;24.10;40.90;;;;;;4948924;28;20046;-56
2022/05/30 02:48:47;;;;;;;0.10;0.00;;;24.10;41.00;;;;;;4949594;28;20159;-53
2022/05/30 02:51:16;;;;;;;1.02;0.00;;;24.10;41.10;;;;;;4977268;28;20133;-53
2022/05/30 02:53:44;;;;;;;0.60;0.00;;;24.10;41.10;;;;;;4965748;28;20039;-55
2022/05/30 02:56:34;;;;;;;0.00;0.00;;;24.10;41.20;;;;;;4964976;28;20057;-54
2022/05/30 02:59:03;;;;;;;0.65;0.00;;;24.10;41.30;;;;;;4964946;28;20055;-55
2022/05/30 03:01:35;;;;;;;0.47;0.47;;;24.10;41.40;;;;;;4948635;28;20058;-54
2022/05/30 03:04:04;;;;;;;0.30;0.20;;;24.10;41.50;;;;;;4966686;28;20039;-55
2022/05/30 03:06:32;;;;;;;0.00;0.00;;;24.10;41.60;;;;;;4966882;28;20043;-56
2022/05/30 03:09:00;;;;;;;0.10;0.10;;;24.10;41.70;;;;;;4949090;28;20050;-55
2022/05/30 03:11:47;;;;;;;0.00;0.00;;;24.10;41.80;;;;;;4962675;28;20107;-55
2022/05/30 03:14:14;;;;;;;0.10;0.00;;;24.10;41.80;;;;;;4950886;28;20626;-55
2022/05/30 03:16:41;;;;;;;1.80;0.00;;;24.10;41.80;;;;;;4965485;28;20087;-52
2022/05/30 03:19:08;;;;;;;0.22;0.22;;;24.10;41.90;;;;;;4951237;28;20038;-54
2022/05/30 03:21:37;;;;;;;0.20;0.00;;;24.10;41.90;;;;;;4949728;28;20090;-55
2022/05/30 03:24:05;;;;;;;0.57;0.57;;;24.10;41.90;;;;;;4949196;28;20487;-53
2022/05/30 03:26:37;;;;;;;0.00;0.00;;;24.10;41.90;;;;;;4966782;28;20035;-51
2022/05/30 03:29:04;;;;;;;0.55;0.20;;;24.10;41.90;;;;;;4968111;28;20469;-53
2022/05/30 03:31:33;;;;;;;0.10;0.00;;;24.10;41.90;;;;;;4949342;28;20046;-56
2022/05/30 03:34:00;;;;;;;0.00;0.00;;;24.10;41.90;;;;;;4966760;28;20685;-54
2022/05/30 03:36:28;;;;;;;0.00;0.00;;;24.10;41.90;;;;;;4966650;28;20126;-55
2022/05/30 03:39:02;;;;;;;0.00;0.00;;;24.10;41.90;;;;;;4966878;28;20408;-56
2022/05/30 03:41:35;;;;;;;0.10;0.10;;;24.10;42.00;;;;;;4967087;28;20145;-54
2022/05/30 03:44:06;;;;;;;1.85;0.00;;;24.10;42.00;;;;;;4965567;28;20046;-52
2022/05/30 03:46:33;;;;;;;0.00;0.00;;;24.10;42.00;;;;;;4966492;28;20050;-55
2022/05/30 03:49:02;;;;;;;0.22;0.05;;;24.10;42.10;;;;;;4972492;28;20101;-55
2022/05/30 03:51:29;;;;;;;0.10;0.00;;;24.00;42.00;;;;;;4976931;28;20047;-54
2022/05/30 03:53:56;;;;;;;0.35;0.00;;;24.10;42.20;;;;;;4949107;28;20307;-52
2022/05/30 03:56:25;;;;;;;0.35;0.00;;;24.10;42.20;;;;;;4966857;28;20090;-54
2022/05/30 03:58:52;;;;;;;0.20;0.00;;;24.10;42.20;;;;;;4968752;28;20062;-50
2022/05/30 04:01:19;;;;;;;0.10;0.00;;;24.00;42.20;;;;;;4952081;28;20054;-54
2022/05/30 04:03:46;;;;;;;0.00;0.00;;;24.10;42.20;;;;;;4952247;28;20118;-55
2022/05/30 04:06:13;;;;;;;0.10;0.00;;;24.10;42.20;;;;;;4969871;28;20057;-53
2022/05/30 04:08:42;;;;;;;1.65;0.08;;;24.00;42.20;;;;;;4968246;28;20051;-55
2022/05/30 04:11:36;;;;;;;0.30;0.00;;;24.00;42.20;;;;;;4969672;28;20043;-54
2022/05/30 04:14:22;;;;;;;0.20;0.10;;;24.00;42.20;;;;;;4966900;28;20190;-55
2022/05/30 04:16:56;;;;;;;0.28;0.05;;;24.00;42.20;;;;;;4985405;28;20066;-54
2022/05/30 04:19:23;;;;;;;1.55;0.10;;;24.00;42.20;;;;;;4969449;28;20499;-56
2022/05/30 04:21:50;;;;;;;0.00;0.00;;;24.00;42.20;;;;;;4952364;28;20503;-55
2022/05/30 04:24:26;;;;;;;0.17;0.10;;;24.00;42.20;;;;;;4969933;28;20043;-57
2022/05/30 04:27:00;;;;;;;0.77;0.30;;;24.00;42.20;;;;;;4952040;28;20045;-56
2022/05/30 04:29:27;;;;;;;0.38;0.05;;;24.00;42.20;;;;;;4957920;28;20046;-57
2022/05/30 04:32:07;;;;;;;0.00;0.00;;;24.00;42.20;;;;;;4971220;28;20055;-56
2022/05/30 04:34:36;;;;;;;0.35;0.10;;;24.00;42.20;;;;;;4968925;28;20054;-57
2022/05/30 04:37:04;;;;;;;0.00;0.00;;;24.00;42.20;;;;;;4968519;28;20049;-56
2022/05/30 04:39:32;;;;;;;0.55;0.00;;;24.00;42.20;;;;;;4945369;28;20039;-54
2022/05/30 04:42:30;;;;;;;0.10;0.00;;;24.00;42.20;;;;;;4966357;28;20040;-55
2022/05/30 04:44:57;;;;;;;1.00;0.00;;;24.00;42.20;;;;;;4969135;28;20043;-56
2022/05/30 04:47:44;;;;;;;1.65;0.30;;;24.00;42.20;;;;;;4951334;28;20050;-56
2022/05/30 04:50:16;;;;;;;0.05;0.00;;;23.90;42.20;;;;;;4945905;29;20534;-57
2022/05/30 04:52:44;;;;;;;0.20;0.00;;;24.00;42.20;;;;;;4950903;28;20503;-55
2022/05/30 04:55:37;;;;;;;0.05;0.05;;;24.00;42.20;;;;;;4966542;28;20062;-56
2022/05/30 04:58:08;;;;;;;0.63;0.08;;;23.90;42.20;;;;;;4967431;28;20046;-56
2022/05/30 05:00:58;;;;;;;0.95;0.10;;;24.00;42.20;;;;;;4968023;28;20057;-55
2022/05/30 05:03:27;;;;;;;1.17;0.20;;;24.00;42.20;;;;;;4951699;28;20045;-55
2022/05/30 05:06:01;;;;;;;0.00;0.00;;;24.00;42.20;;;;;;4949922;28;20130;-56
2022/05/30 05:08:34;;;;;;;0.10;0.05;;;24.00;42.20;;;;;;4948854;28;20097;-55
2022/05/30 05:11:23;;;;;;;0.10;0.00;;;24.00;42.20;;;;;;4968404;28;20054;-56
2022/05/30 05:14:11;;;;;;;0.00;0.00;;;23.90;42.10;;;;;;4969991;28;20039;-56
2022/05/30 05:17:11;;;;;;;0.38;0.10;;;24.00;42.10;;;;;;4890859;29;20133;-52
2022/05/30 05:19:39;;;;;;;1.88;0.08;;;23.90;42.10;;;;;;4893630;29;20052;-52
2022/05/30 05:22:07;;;;;;;1.35;0.30;;;24.00;42.10;;;;;;4871118;29;20052;-54
2022/05/30 05:24:35;;;;;;;1.25;0.30;;;24.00;42.10;;;;;;4873039;29;20057;-56
2022/05/30 05:27:16;;;;;;;0.00;0.00;;;24.00;42.70;;;;;;4891677;29;20178;-56
2022/05/30 05:29:45;;;;;;;0.57;0.00;;;24.00;42.20;;;;;;4874078;29;20868;-55
2022/05/30 05:32:13;;;;;;;0.57;0.00;;;24.00;42.10;;;;;;4901906;29;20052;-54
2022/05/30 05:34:40;;;;;;;5.78;0.10;;;24.00;42.00;;;;;;4891008;29;20076;-54
2022/05/30 05:37:08;;;;;;;1.30;0.00;;;24.00;42.00;;;;;;4873998;29;20045;-55
2022/05/30 05:39:44;;;;;;;1.17;0.10;;;24.00;42.00;;;;;;4890595;29;20083;-55
2022/05/30 05:42:13;;;;;;;0.65;0.10;;;24.00;42.00;;;;;;4889459;29;20497;-51
2022/05/30 05:44:41;;;;;;;1.65;0.20;;;24.10;42.00;;;;;;4876050;29;20056;-55
2022/05/30 05:47:11;;;;;;;0.25;0.25;;;24.10;42.00;;;;;;4884347;29;20052;-53
2022/05/30 05:49:40;;;;;;;0.05;0.00;;;24.10;42.50;;;;;;4885633;29;20521;-51
2022/05/30 05:52:08;;;;;;;2.17;0.00;;;24.10;41.90;;;;;;4900315;28;20703;-55
2022/05/30 05:54:36;;;;;;;0.40;0.00;;;24.10;41.90;;;;;;4950644;28;20826;-55
2022/05/30 05:57:05;;;;;;;0.10;0.00;;;24.10;41.80;;;;;;4950716;28;20945;-55
2022/05/30 05:59:51;;;;;;;2.65;0.00;;;24.10;41.80;;;;;;4954767;28;20051;-52
2022/05/30 06:02:22;;;;;;;0.50;0.10;;;24.10;41.80;;;;;;4955694;28;20058;-52
2022/05/30 06:04:52;;;;;;;0.70;0.00;;;24.20;41.80;;;;;;4967963;28;20051;-53
2022/05/30 06:07:39;;;;;;;1.42;0.15;;;24.10;41.70;;;;;;4967996;28;20183;-54
2022/05/30 06:10:19;;;;;;;0.43;0.00;;;24.10;41.70;;;;;;4951244;28;20544;-53
2022/05/30 06:12:56;;;;;;;0.55;0.00;;;24.10;41.70;;;;;;4977542;28;20038;-51
2022/05/30 06:15:24;;;;;;;1.55;0.10;;;24.20;41.70;;;;;;4967899;28;20486;-52
2022/05/30 06:18:15;;;;;;;0.20;0.00;;;24.20;42.30;;;;;;4955240;28;20054;-53
2022/05/30 06:20:43;;;;;;;0.68;0.10;;;24.20;41.60;;;;;;4966538;28;20051;-54
2022/05/30 06:23:11;;;;;;;0.20;0.10;;;24.20;41.60;;;;;;4952473;28;20383;-55
2022/05/30 06:26:14;;;;;;;0.10;0.10;;;24.20;41.50;;;;;;4968899;28;20813;-52
2022/05/30 06:29:05;;;;;;;1.85;0.00;;;24.20;41.50;;;;;;4967870;28;20046;-55
2022/05/30 06:31:33;;;;;;;0.57;0.10;;;24.30;41.50;;;;;;4950312;28;20085;-55
2022/05/30 06:34:02;;;;;;;0.35;0.10;;;24.30;41.50;;;;;;4949667;28;20062;-54
2022/05/30 06:36:42;;;;;;;0.05;0.03;;;24.30;41.40;;;;;;4948673;28;20062;-57
2022/05/30 06:39:11;;;;;;;2.03;0.00;;;24.30;41.50;;;;;;4947145;28;20046;-57
2022/05/30 06:42:08;;;;;;;2.95;0.00;;;24.30;41.40;;;;;;4963137;28;20550;-57
2022/05/30 06:44:55;;;;;;;0.57;0.10;;;24.30;41.40;;;;;;4967558;28;20035;-57
2022/05/30 06:47:58;;;;;;;1.05;0.10;;;24.40;41.40;;;;;;4961710;28;20046;-58
2022/05/30 06:50:46;;;;;;;2.65;0.10;;;24.40;41.30;;;;;;4964361;28;20517;-57
2022/05/30 06:53:14;;;;;;;0.52;0.00;;;24.40;41.30;;;;;;4967545;28;20511;-56
2022/05/30 06:55:41;;;;;;;0.13;0.00;;;24.40;41.20;;;;;;4962836;28;20062;-57
2022/05/30 06:58:14;;;;;;;0.95;0.10;;;24.40;41.10;;;;;;4965990;28;20404;-55
2022/05/30 07:00:45;;;;;;;1.45;0.00;;;24.40;41.10;;;;;;4947748;28;20078;-56
2022/05/30 07:03:31;;;;;;;0.32;0.05;;;24.50;41.10;;;;;;4963696;28;20051;-52
2022/05/30 07:06:22;;;;;;;1.55;0.20;;;24.50;41.10;;;;;;4966827;28;20042;-50
2022/05/30 07:09:08;;;;;;;1.30;0.10;;;24.50;41.20;;;;;;4964906;28;20126;-52
2022/05/30 07:11:46;;;;;;;2.13;0.13;;;24.50;41.20;;;;;;4945159;28;20046;-52
2022/05/30 07:14:17;;;;;;;3.00;0.20;;;24.50;41.20;;;;;;4948818;28;20105;-53
2022/05/30 07:16:45;;;;;;;2.40;0.15;;;24.60;41.20;;;;;;4962744;28;20508;-51
2022/05/30 07:19:12;;;;;;;1.30;0.10;;;24.60;41.10;;;;;;4948541;28;20066;-50
2022/05/30 07:21:49;;;;;;;1.60;0.10;;;24.60;41.20;;;;;;4945859;28;20083;-52
2022/05/30 07:24:35;;;;;;;7.32;0.43;;;24.60;41.20;;;;;;4964409;28;20043;-60
2022/05/30 07:27:21;;;;;;;1.00;0.40;;;24.70;40.60;;;;;;4963592;28;20034;-67
2022/05/30 07:30:09;;;;;;;3.33;0.10;;;24.70;40.60;;;;;;4961841;28;20042;-64
2022/05/30 07:32:56;;;;;;;0.52;0.10;;;24.80;40.70;;;;;;4965785;28;20065;-58
2022/05/30 07:35:43;;;;;;;1.90;0.20;;;25.00;40.40;;;;;;4966210;28;20178;-53
2022/05/30 07:38:29;;;;;;;2.20;0.10;;;25.10;40.00;;;;;;4951030;28;20046;-59
2022/05/30 07:41:15;;;;;;;2.70;0.10;;;25.30;39.80;;;;;;4966610;28;20046;-54
2022/05/30 07:44:03;;;;;;;1.65;0.10;;;25.40;39.60;;;;;;4960351;28;20067;-49
2022/05/30 07:46:43;;;;;;;3.60;0.15;;;25.50;39.20;;;;;;4967340;28;20145;-47
2022/05/30 07:49:22;;;;;;;10.43;0.10;;;25.70;39.00;;;;;;4952111;28;20079;-48
2022/05/30 07:52:15;;;;;;;5.10;0.10;;;25.80;38.80;;;;;;4952733;28;20141;-47
2022/05/30 07:55:02;;;;;;;3.75;0.28;;;25.90;38.70;;;;;;4969742;28;20119;-53
2022/05/30 07:57:53;;;;;;;3.60;0.30;;;26.00;38.40;;;;;;4970463;28;20050;-48
2022/05/30 08:00:29;;;;;;;2.10;0.10;;;26.10;38.30;;;;;;4949192;28;20050;-59
2022/05/30 08:03:05;;;;;;;3.47;0.10;;;26.10;38.10;;;;;;4952349;28;20059;-57
2022/05/30 08:05:34;;;;;;;2.25;0.47;;;26.20;38.00;;;;;;4954089;28;20054;-51
2022/05/30 08:08:11;;;;;;;3.22;0.10;;;26.30;37.90;;;;;;4969588;28;20407;-46
2022/05/30 08:10:47;;;;;;;1.40;0.90;;;26.40;37.70;;;;;;4970207;28;20101;-49
2022/05/30 08:13:15;;;;;;;0.20;0.20;;;26.50;37.50;;;;;;4947037;28;20047;-49
2022/05/30 08:15:44;;;;;;;6.03;0.63;;;26.60;37.20;;;;;;4973067;28;20065;-49
2022/05/30 08:18:33;;;;;;;8.18;0.40;;;26.70;37.00;;;;;;4972749;28;20059;-64
2022/05/30 08:21:04;;;;;;;32.80;0.93;;;26.80;37.00;;;;;;4951426;28;20583;-65
2022/05/30 08:23:35;;;;;;;4.45;0.75;;;26.80;37.20;;;;;;4948816;28;20035;-56
2022/05/30 08:26:05;;;;;;;10.65;0.68;;;26.90;35.80;;;;;;4947766;28;20385;-54
2022/05/30 08:28:46;;;;;;;4.75;0.30;;;27.00;34.40;;;;;;4986169;28;20137;-56
2022/05/30 08:31:16;;;;;;;1.85;0.40;;;27.10;33.70;;;;;;4950221;28;20129;-50
2022/05/30 08:33:46;;;;;;;7.88;0.30;;;27.20;33.30;;;;;;4970418;28;20042;-51
2022/05/30 08:36:14;;;;;;;1.60;0.10;;;27.20;32.60;;;;;;4970407;28;20076;-48
2022/05/30 08:38:42;;;;;;;4.00;0.35;;;27.30;32.10;;;;;;4952594;28;20066;-50
2022/05/30 08:44:14;;;;;;;5.38;0.10;;;27.40;31.60;;;;;;4968333;28;20535;-48
2022/05/30 08:47:20;;;;;;;1.80;0.10;;;27.40;31.20;;;;;;4942998;28;20405;-48
2022/05/30 08:49:50;;;;;;;2.47;0.17;;;27.40;30.80;;;;;;4969600;28;20074;-57
2022/05/30 08:52:42;;;;;;;0.40;0.20;;;27.40;30.80;;;;;;4947870;29;20411;-60
2022/05/30 08:55:20;;;;;;;1.85;0.50;;;27.40;30.80;;;;;;4969964;28;20853;-60
2022/05/30 08:58:05;;;;;;;4.10;0.55;;;27.50;30.70;;;;;;4977080;28;20050;-49
2022/05/30 09:00:37;;;;;;;2.78;0.30;;;27.50;30.60;;;;;;4944043;28;20083;-47
2022/05/30 09:03:42;;;;;;;2.67;0.10;;;27.50;30.30;;;;;;4964100;28;20039;-47
2022/05/30 09:06:20;;;;;;;0.50;0.20;;;27.50;30.00;;;;;;4963511;28;20081;-46
2022/05/30 09:08:53;;;;;;;0.77;0.15;;;27.50;29.90;;;;;;4949898;28;20046;-46
2022/05/30 09:11:44;;;;;;;1.73;0.10;;;27.50;29.80;;;;;;4965815;28;20130;-46
2022/05/30 09:14:19;;;;;;;;;;;27.50;29.50;;;;;;4964694;28;20051;-46
2022/05/30 09:16:52;;;;;;;0.73;0.22;;;27.40;29.20;;;;;;4973653;28;19985;-45
2022/05/30 09:19:23;;;;;;;0.75;0.20;;;27.40;29.30;;;;;;4963882;28;20098;-47
2022/05/30 09:21:54;;;;;;;2.13;0.68;;;27.40;29.20;;;;;;4943619;28;20071;-47
2022/05/30 09:24:22;;;;;;;1.27;0.10;;;27.40;29.00;;;;;;4965087;28;20057;-50
2022/05/30 09:26:50;;;;;;;0.20;0.10;;;27.40;29.00;;;;;;4964316;28;20046;-47
2022/05/30 09:29:24;;;;;;;1.77;0.20;;;27.40;28.90;;;;;;4950328;28;20097;-46
2022/05/30 09:32:19;;;;;;;0.77;0.10;;;27.40;28.90;;;;;;4931991;29;20051;-47
2022/05/30 09:35:23;;;;;;;0.10;0.10;;;27.40;28.90;;;;;;4935554;29;20047;-47
2022/05/30 09:38:12;;;;;;;3.10;0.40;;;27.40;28.70;;;;;;4933980;29;20051;-47
2022/05/30 09:41:06;;;;;;;0.55;0.35;;;27.30;28.60;;;;;;4927052;29;20232;-46
2022/05/30 09:43:58;;;;;;;0.82;0.10;;;27.30;28.50;;;;;;4950882;28;20305;-45
2022/05/30 09:46:33;;;;;;;1.42;0.10;;;27.30;28.40;;;;;;4944850;28;20551;-44
2022/05/30 09:49:25;;;;;;;0.75;0.30;;;27.30;28.40;;;;;;4915029;29;20059;-45
2022/05/30 09:52:00;;;;;;;0.55;0.13;;;27.20;28.00;;;;;;4952004;28;20067;-48
2022/05/30 09:54:34;;;;;;;1.75;0.10;;;27.20;28.00;;;;;;4952338;28;20054;-46
2022/05/30 09:57:07;;;;;;;1.02;0.08;;;27.20;27.50;;;;;;4918869;29;20572;-47
2022/05/30 09:59:57;;;;;;;1.00;0.10;;;27.00;27.20;;;;;;4948835;28;20070;-47
2022/05/30 10:02:31;;;;;;;1.33;0.20;;;26.90;27.20;;;;;;4935832;29;20063;-47
2022/05/30 10:05:02;;;;;;;3.53;0.30;;;26.70;27.00;;;;;;4955398;28;20122;-46
2022/05/30 10:07:33;;;;;;;0.32;0.10;;;26.60;27.00;;;;;;4949852;29;20055;-48
2022/05/30 10:10:22;;;;;;;0.10;0.03;;;26.40;27.00;;;;;;4969531;28;20137;-47
2022/05/30 10:12:58;;;;;;;0.00;0.00;;;26.30;26.80;;;;;;4971749;28;20054;-49
2022/05/30 10:16:01;;;;;;;1.17;0.10;;;26.20;26.60;;;;;;4914805;29;20048;-46
2022/05/30 10:18:35;;;;;;;6.18;0.10;;;26.10;26.60;;;;;;4920083;29;20580;-48
2022/05/30 10:21:26;;;;;;;2.08;0.10;;;26.00;26.90;;;;;;4917387;29;20048;-47
2022/05/30 10:30:51;;;;;;;2.83;0.20;;;25.80;27.20;;;;;;4930433;29;20056;-46
2022/05/30 10:34:05;;;;;;;0.52;0.05;;;25.70;27.30;;;;;;4919079;29;20114;-48
2022/05/30 10:36:47;;;;;;;0.52;0.10;;;25.70;27.30;;;;;;4912988;29;20063;-49
2022/05/30 10:39:33;;;;;;;3.80;0.10;;;25.70;27.40;;;;;;4913439;29;20098;-46
2022/05/30 10:42:05;;;;;;;1.02;0.20;;;25.60;27.40;;;;;;4912817;29;20056;-46
2022/05/30 10:44:35;;;;;;;0.15;0.10;;;25.60;27.40;;;;;;4929359;29;20047;-47
2022/05/30 10:47:09;;;;;;;1.67;0.10;;;25.50;27.50;;;;;;4931146;29;20059;-46
2022/05/30 10:49:47;;;;;;;2.65;0.40;;;25.50;27.50;;;;;;4933699;28;20056;-45
2022/05/30 10:52:22;;;;;;;0.57;0.55;;;25.50;27.50;;;;;;4969836;28;20073;-46
2022/05/30 10:55:03;;;;;;;3.08;0.73;;;25.50;27.40;;;;;;4946297;28;20070;-46
2022/05/30 10:57:39;;;;;;;0.20;0.10;;;25.50;27.20;;;;;;4965311;28;20062;-44
2022/05/30 11:00:10;;;;;;;2.30;0.10;;;25.50;27.10;;;;;;4949916;28;20042;-45
2022/05/30 11:02:49;;;;;;;0.95;0.10;;;25.40;27.20;;;;;;4958339;28;20059;-45
2022/05/30 11:05:23;;;;;;;1.38;0.65;;;25.50;27.20;;;;;;4962628;28;20045;-46
2022/05/30 11:07:58;;;;;;;1.75;0.20;;;25.50;26.90;;;;;;4940282;28;20046;-46
2022/05/30 11:10:35;;;;;;;1.13;0.10;;;25.50;26.70;;;;;;4938635;29;20042;-45
2022/05/30 11:13:13;;;;;;;2.95;0.30;;;25.50;26.70;;;;;;4949338;28;20398;-45
2022/05/30 11:15:54;;;;;;;1.77;0.10;;;25.50;27.00;;;;;;4961882;28;20065;-45
2022/05/30 11:18:59;;;;;;;0.40;0.10;;;25.50;27.00;;;;;;4903848;29;20053;-46
2022/05/30 11:22:05;;;;;;;0.10;0.00;;;25.50;26.80;;;;;;4886876;29;20060;-47
2022/05/30 11:24:34;;;;;;;0.88;0.10;;;25.50;26.60;;;;;;4895851;29;20087;-61
2022/05/30 11:27:13;;;;;;;0.20;0.10;;;25.50;26.80;;;;;;4895512;29;20136;-48
2022/05/30 11:30:01;;;;;;;0.32;0.32;;;25.50;26.90;;;;;;4887268;29;20097;-48
2022/05/30 11:32:55;;;;;;;0.45;0.45;;;25.50;26.80;;;;;;4890835;29;20075;-46
2022/05/30 11:35:33;;;;;;;3.17;0.10;;;25.40;26.90;;;;;;4890355;29;20050;-46
2022/05/30 11:38:26;;;;;;;1.77;0.20;;;25.40;26.90;;;;;;4897346;29;20147;-47
2022/05/30 11:41:01;;;;;;;0.75;0.10;;;25.40;27.10;;;;;;4892091;29;20561;-48
2022/05/30 11:43:43;;;;;;;8.10;0.20;;;25.30;26.90;;;;;;4892590;29;20565;-52
2022/05/30 11:46:21;;;;;;;4.53;0.68;;;25.30;26.90;;;;;;4897811;29;20041;-59
2022/05/30 11:48:57;;;;;;;3.90;0.30;;;25.40;27.60;;;;;;4905599;29;20846;-61
2022/05/30 11:51:30;;;;;;;;;;;25.40;27.20;;;;;;4899531;29;20055;-56
2022/05/30 11:54:20;;;;;;;4.50;0.20;;;25.40;27.50;;;;;;4896574;29;19953;-60
2022/05/30 11:56:57;;;;;;;1.25;0.70;;;25.60;27.50;;;;;;4955303;28;20043;-60
2022/05/30 11:59:45;;;;;;;3.53;0.50;;;25.70;27.50;;;;;;4945625;28;20051;-58
2022/05/30 12:02:17;;;;;;;4.28;0.10;;;25.90;27.50;;;;;;4960589;28;20120;-60
2022/05/30 12:05:18;;;;;;;3.47;0.00;;;26.10;27.20;;;;;;4963346;28;20094;-61
2022/05/30 12:08:08;;;;;;;3.03;0.10;;;26.20;26.60;;;;;;4963585;28;20050;-61
2022/05/30 12:10:58;;;;;;;1.55;0.00;;;26.30;26.60;;;;;;4959214;28;20051;-62
2022/05/30 12:13:40;;;;;;;3.35;0.10;;;26.20;26.40;;;;;;4961255;28;20051;-62
2022/05/30 12:16:15;;;;;;;3.88;0.20;;;26.20;26.30;;;;;;4963252;28;20457;-60
2022/05/30 12:24:37;;;;;;;6.47;0.32;;;26.00;26.30;;;;;;4961763;28;20050;-61
2022/05/30 12:27:12;;;;;;;15.48;0.43;;;26.00;26.20;;;;;;4966959;28;20575;-60
2022/05/30 12:29:53;;;;;;;3.42;0.10;;;26.00;26.10;;;;;;4949717;28;20054;-42
2022/05/30 12:32:42;;;;;;;2.05;0.10;;;25.90;26.00;;;;;;4964249;28;20583;-54
2022/05/30 12:35:21;;;;;;;4.53;0.10;;;25.90;26.20;;;;;;4966780;28;20050;-58
2022/05/30 12:37:51;;;;;;;1.35;0.10;;;25.90;26.20;;;;;;4966910;28;20259;-60
2022/05/30 12:40:35;;;;;;;3.88;0.10;;;25.80;25.80;;;;;;4966184;28;20535;-59
2022/05/30 12:43:13;;;;;;;0.40;0.10;;;25.80;25.80;;;;;;4962273;28;20050;-59
2022/05/30 12:45:46;;;;;;;3.10;0.43;;;25.70;25.90;;;;;;4965939;28;20126;-57
2022/05/30 12:48:18;;;;;;;1.85;0.10;;;25.70;25.90;;;;;;4965942;28;20726;-54
2022/05/30 12:51:00;;;;;;;0.43;0.10;;;25.70;25.90;;;;;;4964183;28;20507;-51
2022/05/30 12:54:02;;;;;;;1.10;0.10;;;25.80;25.80;;;;;;4963373;28;20043;-51
2022/05/30 12:57:01;;;;;;;1.65;0.20;;;25.80;25.80;;;;;;4964085;28;20050;-61
2022/05/30 12:59:33;;;;;;;0.28;0.10;;;25.90;25.50;;;;;;4963032;28;20066;-58
2022/05/30 13:02:04;;;;;;;0.50;0.10;;;26.00;25.30;;;;;;4972048;28;20159;-58
2022/05/30 13:04:36;;;;;;;0.75;0.10;;;26.10;25.50;;;;;;4965532;28;20452;-61
2022/05/30 13:07:16;;;;;;;1.88;0.10;;;26.20;25.90;;;;;;4966268;28;20043;-59
2022/05/30 13:09:44;;;;;;;0.20;0.10;;;26.40;26.00;;;;;;4960464;28;20109;-61
2022/05/30 13:12:51;;;;;;;0.80;0.10;;;26.50;26.00;;;;;;4965460;28;20043;-57
2022/05/30 13:15:26;;;;;;;1.15;0.00;;;26.70;25.90;;;;;;4966443;28;20125;-67
2022/05/30 13:18:01;;;;;;;2.75;0.25;;;26.90;25.90;;;;;;4960438;28;20039;-65
2022/05/30 13:20:39;;;;;;;0.47;0.10;;;27.00;25.80;;;;;;4963362;28;20043;-63
2022/05/30 13:23:08;;;;;;;0.47;0.10;;;27.20;25.80;;;;;;4968070;28;20098;-44
2022/05/30 13:25:39;;;;;;;0.10;0.00;;;27.30;25.60;;;;;;4964115;28;20039;-61
2022/05/30 13:28:09;;;;;;;0.70;0.10;;;27.40;25.40;;;;;;4967287;28;20116;-55
2022/05/30 13:30:40;;;;;;;4.47;0.73;;;27.40;25.40;;;;;;4965573;28;20050;-60
2022/05/30 13:33:20;;;;;;;1.65;0.10;;;27.40;25.20;;;;;;4965148;28;20074;-61
2022/05/30 13:35:52;;;;;;;4.18;0.10;;;27.40;25.10;;;;;;4964156;28;20074;-60
2022/05/30 13:38:26;;;;;;;0.40;0.10;;;27.40;25.20;;;;;;4966515;28;20094;-61
2022/05/30 13:40:53;;;;;;;1.55;0.40;;;27.40;25.10;;;;;;4961956;28;20043;-60
2022/05/30 13:43:31;;;;;;;1.40;0.30;;;27.40;25.00;;;;;;4965426;28;20051;-61
2022/05/30 13:46:01;;;;;;;0.15;0.03;;;27.40;25.30;;;;;;4965179;28;20043;-60
2022/05/30 13:48:29;;;;;;;0.82;0.20;;;27.50;25.10;;;;;;4965395;28;20053;-60
2022/05/30 13:50:59;;;;;;;0.50;0.10;;;27.50;25.00;;;;;;4947782;28;20046;-61
2022/05/30 13:53:32;;;;;;;0.10;0.10;;;27.50;24.90;;;;;;4965802;28;20058;-62
2022/05/30 13:56:01;;;;;;;3.42;0.08;;;27.50;24.80;;;;;;4964344;28;20043;-61
2022/05/30 13:58:31;;;;;;;0.50;0.00;;;27.50;24.70;;;;;;4964873;28;20053;-62
2022/05/30 14:01:02;;;;;;;0.63;0.10;;;27.50;24.70;;;;;;4962224;28;20050;-66